Envar — 3ESE3 — position and weather

sailwx.info

Track history (hours):
 
Tides and Currents Weather Stations Pressure Air Temp Water Temp Dewpoint Dewpoint Depression Visibility Wind Speed Wind Dir Waves Ship Positions

Envar

Last reported at 2018-Jun-13 16:44 UTC. Time now 2018-Jun-19 14:27 UTC.
Position N 46°35' E 031°12'.

Length 99 m; draft 6.5 m.

Type: Cargo ship. MMSI: 370274000.

Date/timePositionNaut miles runAvg speedWind from/ knotsBaromVisibWave heightAir tempDewpointWater temp
2018-Jun-13 16:44N 46°35' E 031°12'3 8.5
2018-Jun-13 16:25N 46°35' E 031°16'4 8.2
2018-Jun-13 15:58N 46°35' E 031°21'9 7.1
2018-Jun-13 14:46N 46°35' E 031°34'2 7.6
2018-Jun-13 14:28N 46°35' E 031°37'4 7.8
2018-Jun-13 14:00N 46°36' E 031°42'4 7.9
2018-Jun-13 13:30N 46°36' E 031°48'4 7.6
2018-Jun-13 13:00N 46°37' E 031°53'4 7.3
2018-Jun-13 12:30N 46°40' E 031°56'4 7.4
2018-Jun-13 12:00N 46°44' E 031°55'3 6.4
2018-Jun-13 11:28N 46°47' E 031°53'10 7.4
2018-Jun-13 10:07N 46°56' E 032°01'1 6.5
2018-Jun-13 10:00N 46°56' E 032°00'1 1.1
2018-Jun-13 09:23N 46°57' E 031°60'0 0.0
2018-Jun-13 08:59N 46°57' E 031°60'0 0.0
2018-Jun-13 08:29N 46°57' E 031°60'0 0.0
2018-Jun-13 07:59N 46°57' E 031°60'0 0.0
2018-Jun-13 07:29N 46°57' E 031°60'0 0.0
2018-Jun-13 06:59N 46°57' E 031°60'0 0.0
2018-Jun-13 06:29N 46°57' E 031°60'0 0.0
2018-Jun-13 05:59N 46°57' E 031°60'0 0.0
2018-Jun-13 05:29N 46°57' E 031°60'0 0.0
2018-Jun-13 04:59N 46°57' E 031°60'0 0.0
2018-Jun-13 04:29N 46°57' E 031°60'0 0.0
2018-Jun-13 03:59N 46°57' E 031°60'0 0.0
2018-Jun-13 03:29N 46°57' E 031°60'0 0.0
2018-Jun-13 02:59N 46°57' E 031°60'0 0.0
2018-Jun-13 02:29N 46°57' E 031°60'0 0.0
2018-Jun-13 01:59N 46°57' E 031°60'0 0.0
2018-Jun-13 01:29N 46°57' E 031°60'0 0.0
2018-Jun-13 00:59N 46°57' E 031°60'0 0.0
2018-Jun-13 00:29N 46°57' E 031°60'0 0.0
2018-Jun-12 23:59N 46°57' E 031°60'0 0.0
2018-Jun-12 23:29N 46°57' E 031°60'0 0.0
2018-Jun-12 22:59N 46°57' E 031°60'0 0.0
2018-Jun-12 22:29N 46°57' E 031°60'0 0.0
2018-Jun-12 21:59N 46°57' E 031°60'0 0.0
2018-Jun-12 21:29N 46°57' E 031°60'0 0.0
2018-Jun-12 20:59N 46°57' E 031°60'0 0.0
2018-Jun-12 20:29N 46°57' E 031°60'0 0.0
2018-Jun-12 19:59N 46°57' E 031°60'0 0.0
2018-Jun-12 19:29N 46°57' E 031°60'0 0.0
2018-Jun-12 18:59N 46°57' E 031°60'0 0.0
2018-Jun-12 18:29N 46°57' E 031°60'0 0.0
2018-Jun-12 17:59N 46°57' E 031°60'0 0.0
2018-Jun-12 17:29N 46°57' E 031°60'0 0.0
2018-Jun-12 16:59N 46°57' E 031°60'0 0.0
2018-Jun-12 16:29N 46°57' E 031°60'0 0.0
2018-Jun-12 15:59N 46°57' E 031°60'0 0.0
2018-Jun-12 15:29N 46°57' E 031°60'0 0.0
2018-Jun-12 14:59N 46°57' E 031°60'0 0.0
2018-Jun-12 14:29N 46°57' E 031°60'0 0.0
2018-Jun-12 13:59N 46°57' E 031°60'0 0.0
2018-Jun-12 13:26N 46°57' E 031°60'0 0.0
2018-Jun-12 12:59N 46°57' E 031°60'0 0.0
2018-Jun-12 12:29N 46°57' E 031°60'0 0.0
2018-Jun-12 11:59N 46°57' E 031°60'0 0.0
2018-Jun-12 11:29N 46°57' E 031°60'0 0.0
2018-Jun-12 10:59N 46°57' E 031°60'0 0.0
2018-Jun-12 10:29N 46°57' E 031°60'0 0.0
2018-Jun-12 09:59N 46°57' E 031°60'0 0.0
2018-Jun-12 09:29N 46°57' E 031°60'0 0.0
2018-Jun-12 08:59N 46°57' E 031°60'0 0.0
2018-Jun-12 08:29N 46°57' E 031°60'0 0.0
2018-Jun-12 07:59N 46°57' E 031°60'0 0.0
2018-Jun-12 07:29N 46°57' E 031°60'0 0.0
2018-Jun-12 06:59N 46°57' E 031°60'0 0.0
2018-Jun-12 06:29N 46°57' E 031°60'0 0.0
2018-Jun-12 05:59N 46°57' E 031°60'0 0.0
2018-Jun-12 05:29N 46°57' E 031°60'0 0.0
2018-Jun-12 04:56N 46°57' E 031°60'0 0.0
2018-Jun-12 04:29N 46°57' E 031°60'0 0.0
2018-Jun-12 03:59N 46°57' E 031°60'0 0.0
2018-Jun-12 03:29N 46°57' E 031°60'0 0.0
2018-Jun-12 02:59N 46°57' E 031°60'0 0.0
2018-Jun-12 02:29N 46°57' E 031°60'0 0.0
2018-Jun-12 01:59N 46°57' E 031°60'0 0.0
2018-Jun-12 01:29N 46°57' E 031°60'0 0.0
2018-Jun-12 00:59N 46°57' E 031°60'0 0.0
2018-Jun-12 00:29N 46°57' E 031°60'0 0.0
2018-Jun-11 23:59N 46°57' E 031°60'0 0.0
2018-Jun-11 23:29N 46°57' E 031°60'0 0.0
2018-Jun-11 22:59N 46°57' E 031°60'0 0.0
2018-Jun-11 22:26N 46°57' E 031°60'0 0.0
2018-Jun-11 21:59N 46°57' E 031°60'0 0.0
2018-Jun-11 21:29N 46°57' E 031°60'0 0.0
2018-Jun-11 20:59N 46°57' E 031°60'0 0.0
2018-Jun-11 20:29N 46°57' E 031°60'0 0.0
2018-Jun-11 19:59N 46°57' E 031°60'0 0.0
2018-Jun-11 19:29N 46°57' E 031°60'0 0.0
2018-Jun-11 19:01N 46°57' E 031°60'2 3.1
2018-Jun-11 18:30N 46°56' E 032°01'5 9.1
2018-Jun-11 18:00N 46°52' E 031°58'5 9.6
2018-Jun-11 17:30N 46°48' E 031°53'4 8.8
2018-Jun-11 17:01N 46°44' E 031°56'5 9.3
2018-Jun-11 16:30N 46°39' E 031°56'5 9.7
2018-Jun-11 16:01N 46°36' E 031°50'5 9.1
2018-Jun-11 15:30N 46°36' E 031°44'5 9.9
2018-Jun-11 14:59N 46°35' E 031°36'5 8.8
2018-Jun-11 14:22N 46°35' E 031°28'3 9.6
2018-Jun-11 14:00N 46°35' E 031°23'5 9.8
2018-Jun-11 13:29N 46°35' E 031°16'5 9.7
2018-Jun-11 12:59N 46°35' E 031°09'5 9.6
2018-Jun-11 12:30N 46°34' E 031°02'4 8.5
2018-Jun-11 12:00N 46°31' E 030°57'92 6.8
2018-Jun-10 22:33N 45°01' E 031°19'0 8.5
2018-Jun-10 22:30N 45°01' E 031°19'5 8.5
2018-Jun-10 21:55N 44°56' E 031°20'4 8.5
2018-Jun-10 21:30N 44°52' E 031°20'4 8.4
2018-Jun-10 21:00N 44°48' E 031°21'4 8.3
2018-Jun-10 20:30N 44°44' E 031°21'4 8.1
2018-Jun-10 20:00N 44°40' E 031°22'4 8.0
2018-Jun-10 19:30N 44°36' E 031°22'4 8.1
2018-Jun-10 19:00N 44°32' E 031°23'4 7.9
2018-Jun-10 18:30N 44°28' E 031°24'4 7.9
2018-Jun-10 17:57N 44°24' E 031°25'4 8.0
2018-Jun-10 17:30N 44°20' E 031°25'4 7.9
2018-Jun-10 17:00N 44°16' E 031°26'4 7.9
2018-Jun-10 16:30N 44°12' E 031°27'4 7.9
2018-Jun-10 16:00N 44°09' E 031°27'4 8.1
2018-Jun-10 15:30N 44°05' E 031°28'4 8.2
2018-Jun-10 15:00N 44°00' E 031°28'8 8.2
2018-Jun-10 14:00N 43°52' E 031°30'4 8.4
2018-Jun-10 13:30N 43°48' E 031°31'5 8.5
2018-Jun-10 12:58N 43°44' E 031°32'4 8.5
2018-Jun-10 12:30N 43°40' E 031°33'5 8.6
2018-Jun-10 11:58N 43°35' E 031°34'4 8.5
2018-Jun-10 11:30N 43°31' E 031°35'4 8.4
2018-Jun-10 10:59N 43°27' E 031°36'8 8.1
2018-Jun-10 09:57N 43°19' E 031°39'4 7.9
2018-Jun-10 09:29N 43°15' E 031°40'5 7.6
2018-Jun-10 08:52N 43°11' E 031°42'3 7.5
2018-Jun-10 08:30N 43°08' E 031°43'4 7.4
2018-Jun-10 08:00N 43°05' E 031°45'4 7.3
2018-Jun-10 07:29N 43°01' E 031°46'4 7.3
2018-Jun-10 07:00N 42°58' E 031°48'4 7.4
2018-Jun-10 06:30N 42°54' E 031°49'11 7.6
2018-Jun-10 05:03N 42°44' E 031°54'1 7.5
2018-Jun-10 04:56N 42°43' E 031°54'5 6.8
2018-Jun-10 04:16N 42°39' E 031°52'2 6.6
2018-Jun-10 03:58N 42°37' E 031°51'3 6.6
2018-Jun-10 03:30N 42°34' E 031°51'3 6.5
2018-Jun-10 03:00N 42°30' E 031°50'3 6.3
2018-Jun-10 02:27N 42°27' E 031°50'3 6.6
2018-Jun-10 01:59N 42°24' E 031°49'6 6.1
2018-Jun-10 00:58N 42°18' E 031°48'3 5.8
2018-Jun-10 00:30N 42°15' E 031°47'3 6.0
2018-Jun-10 00:00N 42°12' E 031°46'3 6.4
2018-Jun-09 23:30N 42°09' E 031°45'3 6.4
2018-Jun-09 23:00N 42°06' E 031°45'3 6.2
2018-Jun-09 22:30N 42°03' E 031°44'3 6.1
2018-Jun-09 22:00N 41°60' E 031°44'3 6.4
2018-Jun-09 21:29N 41°57' E 031°43'3 6.7
2018-Jun-09 21:00N 41°53' E 031°43'3 6.8
2018-Jun-09 20:30N 41°50' E 031°44'3 6.8
2018-Jun-09 20:00N 41°47' E 031°44'3 6.5
2018-Jun-09 19:30N 41°43' E 031°44'3 6.5
2018-Jun-09 19:00N 41°40' E 031°45'3 6.7
2018-Jun-09 18:30N 41°37' E 031°45'3 6.5
2018-Jun-09 18:00N 41°34' E 031°46'3 6.6
2018-Jun-09 17:30N 41°30' E 031°45'3 5.8
2018-Jun-09 17:00N 41°27' E 031°46'0 0.7
2018-Jun-09 16:21N 41°27' E 031°47'0 0.0
2018-Jun-09 14:33N 41°27' E 031°47'0 0.0
2018-Jun-09 14:06N 41°27' E 031°47'0 0.1
2018-Jun-09 14:00N 41°27' E 031°47'0 0.0
2018-Jun-09 13:27N 41°27' E 031°47'0 0.0
2018-Jun-09 04:27N 41°27' E 031°47'0 0.0
2018-Jun-08 10:15N 41°27' E 031°47'0 0.0
2018-Jun-07 14:51N 41°27' E 031°47'0 0.0
2018-Jun-07 14:27N 41°27' E 031°47'  
2018-Jun-04 01:05N 44°24' E 037°26'1 9.0
2018-Jun-04 00:58N 44°25' E 037°28'4 9.0
2018-Jun-04 00:30N 44°27' E 037°33'5 9.0
2018-Jun-03 23:58N 44°30' E 037°37'4 9.0
2018-Jun-03 23:30N 44°33' E 037°41'5 9.2
2018-Jun-03 23:00N 44°37' E 037°46'4 8.6
2018-Jun-03 22:30N 44°40' E 037°50'4 8.0
2018-Jun-03 22:00N 44°43' E 037°48'0 0.8
2018-Jun-03 21:28N 44°44' E 037°48'0 0.0
2018-Jun-03 20:58N 44°44' E 037°48'0 0.0
2018-Jun-03 20:28N 44°44' E 037°48'0 0.0
2018-Jun-03 19:58N 44°44' E 037°48'0 0.0
2018-Jun-03 19:28N 44°44' E 037°48'0 0.0
2018-Jun-03 18:58N 44°44' E 037°48'0 0.0
2018-Jun-03 18:28N 44°44' E 037°48'0 0.0
2018-Jun-03 17:58N 44°44' E 037°48'0 0.0
2018-Jun-03 17:28N 44°44' E 037°48'0 0.0
2018-Jun-03 16:58N 44°44' E 037°48'  
Track history (hours):
 
Tides and Currents Weather Stations Pressure Air Temp Water Temp Dewpoint Dewpoint Depression Visibility Wind Speed Wind Dir Waves Ship Positions

Envar

Last reported at 2018-Jun-13 16:44 UTC. Time now 2018-Jun-19 14:27 UTC.
Position N 46°35' E 031°12'.

Length 99 m; draft 6.5 m.

Type: Cargo ship. MMSI: 370274000.

Date/timePositionNaut miles runAvg speedWind from/ knotsBaromVisibWave heightAir tempDewpointWater temp
2018-Jun-13 16:44N 46°35' E 031°12'3 8.5
2018-Jun-13 16:25N 46°35' E 031°16'4 8.2
2018-Jun-13 15:58N 46°35' E 031°21'9 7.1
2018-Jun-13 14:46N 46°35' E 031°34'2 7.6
2018-Jun-13 14:28N 46°35' E 031°37'4 7.8
2018-Jun-13 14:00N 46°36' E 031°42'4 7.9
2018-Jun-13 13:30N 46°36' E 031°48'4 7.6
2018-Jun-13 13:00N 46°37' E 031°53'4 7.3
2018-Jun-13 12:30N 46°40' E 031°56'4 7.4
2018-Jun-13 12:00N 46°44' E 031°55'3 6.4
2018-Jun-13 11:28N 46°47' E 031°53'10 7.4
2018-Jun-13 10:07N 46°56' E 032°01'1 6.5
2018-Jun-13 10:00N 46°56' E 032°00'1 1.1
2018-Jun-13 09:23N 46°57' E 031°60'0 0.0
2018-Jun-13 08:59N 46°57' E 031°60'0 0.0
2018-Jun-13 08:29N 46°57' E 031°60'0 0.0
2018-Jun-13 07:59N 46°57' E 031°60'0 0.0
2018-Jun-13 07:29N 46°57' E 031°60'0 0.0
2018-Jun-13 06:59N 46°57' E 031°60'0 0.0
2018-Jun-13 06:29N 46°57' E 031°60'0 0.0
2018-Jun-13 05:59N 46°57' E 031°60'0 0.0
2018-Jun-13 05:29N 46°57' E 031°60'0 0.0
2018-Jun-13 04:59N 46°57' E 031°60'0 0.0
2018-Jun-13 04:29N 46°57' E 031°60'0 0.0
2018-Jun-13 03:59N 46°57' E 031°60'0 0.0
2018-Jun-13 03:29N 46°57' E 031°60'0 0.0
2018-Jun-13 02:59N 46°57' E 031°60'0 0.0
2018-Jun-13 02:29N 46°57' E 031°60'0 0.0
2018-Jun-13 01:59N 46°57' E 031°60'0 0.0
2018-Jun-13 01:29N 46°57' E 031°60'0 0.0
2018-Jun-13 00:59N 46°57' E 031°60'0 0.0
2018-Jun-13 00:29N 46°57' E 031°60'0 0.0
2018-Jun-12 23:59N 46°57' E 031°60'0 0.0
2018-Jun-12 23:29N 46°57' E 031°60'0 0.0
2018-Jun-12 22:59N 46°57' E 031°60'0 0.0
2018-Jun-12 22:29N 46°57' E 031°60'0 0.0
2018-Jun-12 21:59N 46°57' E 031°60'0 0.0
2018-Jun-12 21:29N 46°57' E 031°60'0 0.0
2018-Jun-12 20:59N 46°57' E 031°60'0 0.0
2018-Jun-12 20:29N 46°57' E 031°60'0 0.0
2018-Jun-12 19:59N 46°57' E 031°60'0 0.0
2018-Jun-12 19:29N 46°57' E 031°60'0 0.0
2018-Jun-12 18:59N 46°57' E 031°60'0 0.0
2018-Jun-12 18:29N 46°57' E 031°60'0 0.0
2018-Jun-12 17:59N 46°57' E 031°60'0 0.0
2018-Jun-12 17:29N 46°57' E 031°60'0 0.0
2018-Jun-12 16:59N 46°57' E 031°60'0 0.0
2018-Jun-12 16:29N 46°57' E 031°60'0 0.0
2018-Jun-12 15:59N 46°57' E 031°60'0 0.0
2018-Jun-12 15:29N 46°57' E 031°60'0 0.0
2018-Jun-12 14:59N 46°57' E 031°60'0 0.0
2018-Jun-12 14:29N 46°57' E 031°60'0 0.0
2018-Jun-12 13:59N 46°57' E 031°60'0 0.0
2018-Jun-12 13:26N 46°57' E 031°60'0 0.0
2018-Jun-12 12:59N 46°57' E 031°60'0 0.0
2018-Jun-12 12:29N 46°57' E 031°60'0 0.0
2018-Jun-12 11:59N 46°57' E 031°60'0 0.0
2018-Jun-12 11:29N 46°57' E 031°60'0 0.0
2018-Jun-12 10:59N 46°57' E 031°60'0 0.0
2018-Jun-12 10:29N 46°57' E 031°60'0 0.0
2018-Jun-12 09:59N 46°57' E 031°60'0 0.0
2018-Jun-12 09:29N 46°57' E 031°60'0 0.0
2018-Jun-12 08:59N 46°57' E 031°60'0 0.0
2018-Jun-12 08:29N 46°57' E 031°60'0 0.0
2018-Jun-12 07:59N 46°57' E 031°60'0 0.0
2018-Jun-12 07:29N 46°57' E 031°60'0 0.0
2018-Jun-12 06:59N 46°57' E 031°60'0 0.0
2018-Jun-12 06:29N 46°57' E 031°60'0 0.0
2018-Jun-12 05:59N 46°57' E 031°60'0 0.0
2018-Jun-12 05:29N 46°57' E 031°60'0 0.0
2018-Jun-12 04:56N 46°57' E 031°60'0 0.0
2018-Jun-12 04:29N 46°57' E 031°60'0 0.0
2018-Jun-12 03:59N 46°57' E 031°60'0 0.0
2018-Jun-12 03:29N 46°57' E 031°60'0 0.0
2018-Jun-12 02:59N 46°57' E 031°60'0 0.0
2018-Jun-12 02:29N 46°57' E 031°60'0 0.0
2018-Jun-12 01:59N 46°57' E 031°60'0 0.0
2018-Jun-12 01:29N 46°57' E 031°60'0 0.0
2018-Jun-12 00:59N 46°57' E 031°60'0 0.0
2018-Jun-12 00:29N 46°57' E 031°60'0 0.0
2018-Jun-11 23:59N 46°57' E 031°60'0 0.0
2018-Jun-11 23:29N 46°57' E 031°60'0 0.0
2018-Jun-11 22:59N 46°57' E 031°60'0 0.0
2018-Jun-11 22:26N 46°57' E 031°60'0 0.0
2018-Jun-11 21:59N 46°57' E 031°60'0 0.0
2018-Jun-11 21:29N 46°57' E 031°60'0 0.0
2018-Jun-11 20:59N 46°57' E 031°60'0 0.0
2018-Jun-11 20:29N 46°57' E 031°60'0 0.0
2018-Jun-11 19:59N 46°57' E 031°60'0 0.0
2018-Jun-11 19:29N 46°57' E 031°60'0 0.0
2018-Jun-11 19:01N 46°57' E 031°60'2 3.1
2018-Jun-11 18:30N 46°56' E 032°01'5 9.1
2018-Jun-11 18:00N 46°52' E 031°58'5 9.6
2018-Jun-11 17:30N 46°48' E 031°53'4 8.8
2018-Jun-11 17:01N 46°44' E 031°56'5 9.3
2018-Jun-11 16:30N 46°39' E 031°56'5 9.7
2018-Jun-11 16:01N 46°36' E 031°50'5 9.1
2018-Jun-11 15:30N 46°36' E 031°44'5 9.9
2018-Jun-11 14:59N 46°35' E 031°36'5 8.8
2018-Jun-11 14:22N 46°35' E 031°28'3 9.6
2018-Jun-11 14:00N 46°35' E 031°23'5 9.8
2018-Jun-11 13:29N 46°35' E 031°16'5 9.7
2018-Jun-11 12:59N 46°35' E 031°09'5 9.6
2018-Jun-11 12:30N 46°34' E 031°02'4 8.5
2018-Jun-11 12:00N 46°31' E 030°57'92 6.8
2018-Jun-10 22:33N 45°01' E 031°19'0 8.5
2018-Jun-10 22:30N 45°01' E 031°19'5 8.5
2018-Jun-10 21:55N 44°56' E 031°20'4 8.5
2018-Jun-10 21:30N 44°52' E 031°20'4 8.4
2018-Jun-10 21:00N 44°48' E 031°21'4 8.3
2018-Jun-10 20:30N 44°44' E 031°21'4 8.1
2018-Jun-10 20:00N 44°40' E 031°22'4 8.0
2018-Jun-10 19:30N 44°36' E 031°22'4 8.1
2018-Jun-10 19:00N 44°32' E 031°23'4 7.9
2018-Jun-10 18:30N 44°28' E 031°24'4 7.9
2018-Jun-10 17:57N 44°24' E 031°25'4 8.0
2018-Jun-10 17:30N 44°20' E 031°25'4 7.9
2018-Jun-10 17:00N 44°16' E 031°26'4 7.9
2018-Jun-10 16:30N 44°12' E 031°27'4 7.9
2018-Jun-10 16:00N 44°09' E 031°27'4 8.1
2018-Jun-10 15:30N 44°05' E 031°28'4 8.2
2018-Jun-10 15:00N 44°00' E 031°28'8 8.2
2018-Jun-10 14:00N 43°52' E 031°30'4 8.4
2018-Jun-10 13:30N 43°48' E 031°31'5 8.5
2018-Jun-10 12:58N 43°44' E 031°32'4 8.5
2018-Jun-10 12:30N 43°40' E 031°33'5 8.6
2018-Jun-10 11:58N 43°35' E 031°34'4 8.5
2018-Jun-10 11:30N 43°31' E 031°35'4 8.4
2018-Jun-10 10:59N 43°27' E 031°36'8 8.1
2018-Jun-10 09:57N 43°19' E 031°39'4 7.9
2018-Jun-10 09:29N 43°15' E 031°40'5 7.6
2018-Jun-10 08:52N 43°11' E 031°42'3 7.5
2018-Jun-10 08:30N 43°08' E 031°43'4 7.4
2018-Jun-10 08:00N 43°05' E 031°45'4 7.3
2018-Jun-10 07:29N 43°01' E 031°46'4 7.3
2018-Jun-10 07:00N 42°58' E 031°48'4 7.4
2018-Jun-10 06:30N 42°54' E 031°49'11 7.6
2018-Jun-10 05:03N 42°44' E 031°54'1 7.5
2018-Jun-10 04:56N 42°43' E 031°54'5 6.8
2018-Jun-10 04:16N 42°39' E 031°52'2 6.6
2018-Jun-10 03:58N 42°37' E 031°51'3 6.6
2018-Jun-10 03:30N 42°34' E 031°51'3 6.5
2018-Jun-10 03:00N 42°30' E 031°50'3 6.3
2018-Jun-10 02:27N 42°27' E 031°50'3 6.6
2018-Jun-10 01:59N 42°24' E 031°49'6 6.1
2018-Jun-10 00:58N 42°18' E 031°48'3 5.8
2018-Jun-10 00:30N 42°15' E 031°47'3 6.0
2018-Jun-10 00:00N 42°12' E 031°46'3 6.4
2018-Jun-09 23:30N 42°09' E 031°45'3 6.4
2018-Jun-09 23:00N 42°06' E 031°45'3 6.2
2018-Jun-09 22:30N 42°03' E 031°44'3 6.1
2018-Jun-09 22:00N 41°60' E 031°44'3 6.4
2018-Jun-09 21:29N 41°57' E 031°43'3 6.7
2018-Jun-09 21:00N 41°53' E 031°43'3 6.8
2018-Jun-09 20:30N 41°50' E 031°44'3 6.8
2018-Jun-09 20:00N 41°47' E 031°44'3 6.5
2018-Jun-09 19:30N 41°43' E 031°44'3 6.5
2018-Jun-09 19:00N 41°40' E 031°45'3 6.7
2018-Jun-09 18:30N 41°37' E 031°45'3 6.5
2018-Jun-09 18:00N 41°34' E 031°46'3 6.6
2018-Jun-09 17:30N 41°30' E 031°45'3 5.8
2018-Jun-09 17:00N 41°27' E 031°46'0 0.7
2018-Jun-09 16:21N 41°27' E 031°47'0 0.0
2018-Jun-09 14:33N 41°27' E 031°47'0 0.0
2018-Jun-09 14:06N 41°27' E 031°47'0 0.1
2018-Jun-09 14:00N 41°27' E 031°47'0 0.0
2018-Jun-09 13:27N 41°27' E 031°47'0 0.0
2018-Jun-09 04:27N 41°27' E 031°47'0 0.0
2018-Jun-08 10:15N 41°27' E 031°47'0 0.0
2018-Jun-07 14:51N 41°27' E 031°47'0 0.0
2018-Jun-07 14:27N 41°27' E 031°47'  
2018-Jun-04 01:05N 44°24' E 037°26'1 9.0
2018-Jun-04 00:58N 44°25' E 037°28'4 9.0
2018-Jun-04 00:30N 44°27' E 037°33'5 9.0
2018-Jun-03 23:58N 44°30' E 037°37'4 9.0
2018-Jun-03 23:30N 44°33' E 037°41'5 9.2
2018-Jun-03 23:00N 44°37' E 037°46'4 8.6
2018-Jun-03 22:30N 44°40' E 037°50'4 8.0
2018-Jun-03 22:00N 44°43' E 037°48'0 0.8
2018-Jun-03 21:28N 44°44' E 037°48'0 0.0
2018-Jun-03 20:58N 44°44' E 037°48'0 0.0
2018-Jun-03 20:28N 44°44' E 037°48'0 0.0
2018-Jun-03 19:58N 44°44' E 037°48'0 0.0
2018-Jun-03 19:28N 44°44' E 037°48'0 0.0
2018-Jun-03 18:58N 44°44' E 037°48'0 0.0
2018-Jun-03 18:28N 44°44' E 037°48'0 0.0
2018-Jun-03 17:58N 44°44' E 037°48'0 0.0
2018-Jun-03 17:28N 44°44' E 037°48'0 0.0
2018-Jun-03 16:58N 44°44' E 037°48'  

Dump ship's entire track history